Date,TemperatureHighF,TemperatureAvgF,TemperatureLowF,DewpointHighF,DewpointAvgF,DewpointLowF,HumidityHigh,HumidityAvg,HumidityLow,PressureMaxIn,PressureMinIn,WindSpeedMaxMPH,WindSpeedAvgMPH,GustSpeedMaxMPH,PrecipitationSumIn
2014-1-1,41.0,25.9,19.0,27.0,21.3,15.0,97,83,51,0.00,40.00,0,-999,0,0.00
2014-1-4,31.0,15.8,10.0,25.0,13.3,8.0,100,90,67,0.00,40.00,0,-999,0,0.00
2014-1-5,20.0,12.0,6.0,10.0,4.5,1.0,97,72,55,0.00,40.00,0,-999,0,0.00
2014-1-6,32.0,17.7,8.0,13.0,7.3,0.0,77,64,39,0.00,40.00,0,-999,0,0.00
2014-1-7,37.0,28.6,23.0,27.0,21.2,13.0,100,75,49,0.00,40.00,0,-999,0,0.00
2014-1-8,32.0,26.1,23.0,31.0,25.8,23.0,100,99,94,0.00,40.00,0,-999,0,0.00
2014-1-9,28.0,20.6,15.0,28.0,19.8,10.0,100,96,72,0.00,40.00,0,-999,0,0.00
2014-1-10,31.0,24.3,17.0,29.0,22.4,15.0,100,93,81,0.00,40.00,0,-999,0,0.00
2014-2-5,24.0,9.9,2.0,11.0,5.3,1.0,98,83,45,0.00,40.00,0,-999,0,0.00
2014-2-6,27.0,20.0,15.0,20.0,14.9,10.0,99,82,66,0.00,40.00,0,-999,0,0.00
2014-2-7,29.0,24.5,20.0,24.0,22.4,19.0,100,92,69,0.00,40.00,0,-999,0,0.00
2014-2-8,33.0,29.7,25.0,33.0,29.7,25.0,100,100,100,0.00,40.00,0,-999,0,0.00
2014-2-9,37.0,32.5,25.0,34.0,31.4,25.0,100,95,81,0.00,40.00,0,-999,0,0.00
2014-2-10,37.0,27.3,17.0,32.0,25.6,17.0,100,93,62,0.00,40.00,0,-999,0,0.00
2014-2-11,33.0,24.3,18.0,27.0,22.1,18.0,100,92,74,0.00,40.00,0,-999,0,0.00
2014-2-12,38.0,35.4,32.0,35.0,33.9,32.0,100,94,89,0.00,40.00,0,-999,0,0.00
2014-2-13,41.0,33.8,30.0,37.0,32.5,30.0,100,95,68,0.00,40.00,0,-999,0,0.00
2014-2-14,43.0,36.4,29.0,37.0,33.6,29.0,100,90,74,0.00,40.00,0,-999,0,0.00
2014-2-15,48.0,44.6,41.0,35.0,26.8,21.0,77,50,38,0.00,40.00,0,-999,0,0.00
2014-2-16,45.0,34.1,20.0,32.0,24.6,19.0,100,72,41,0.00,40.00,0,-999,0,0.00
2014-2-17,45.0,35.9,19.0,18.0,13.8,9.0,86,44,22,0.00,40.00,0,-999,0,0.00
2014-2-18,40.0,31.9,27.0,24.0,15.6,13.0,72,51,33,0.00,40.00,0,-999,0,0.00
2014-2-24,46.0,35.0,29.0,28.0,21.5,16.0,78,58,40,0.00,40.00,0,-999,0,0.00
2014-2-25,48.0,37.1,32.0,32.0,26.8,21.0,89,67,46,0.00,40.00,0,-999,0,0.00
2014-2-26,49.0,36.0,29.0,35.0,30.4,25.0,100,81,57,0.00,40.00,0,-999,0,0.00
2014-2-27,41.0,33.9,29.0,38.0,31.1,23.0,100,90,56,0.00,40.00,0,-999,0,0.00
2014-2-28,41.0,31.5,24.0,34.0,28.8,24.0,100,91,60,0.00,40.00,0,-999,0,0.00
2014-3-1,36.0,31.0,26.0,33.0,29.5,26.0,100,94,71,0.00,40.00,0,-999,0,0.00
2014-3-2,43.0,31.4,24.0,33.0,29.0,24.0,100,92,67,0.00,40.00,0,-999,0,0.00
2014-3-3,48.0,35.4,29.0,36.0,31.0,27.0,100,85,52,0.00,40.00,0,-999,0,0.00
2014-3-4,38.0,30.9,23.0,35.0,28.9,23.0,100,92,68,0.00,40.00,0,-999,0,0.00
2014-3-5,40.0,29.9,22.0,32.0,25.5,22.0,100,85,56,0.00,40.00,0,-999,0,0.00
2014-3-6,43.0,36.4,31.0,35.0,27.5,21.0,100,72,45,0.00,40.00,0,-999,0,0.00
2014-3-7,37.0,29.7,26.0,31.0,27.0,24.0,100,90,67,0.00,40.00,0,-999,0,0.00
2014-3-8,39.0,26.0,20.0,29.0,22.3,14.0,100,87,52,0.00,40.00,0,-999,0,0.00
2014-3-9,55.0,36.7,29.0,24.0,18.1,10.0,60,48,19,0.00,40.00,0,-999,0,0.00
2014-3-10,49.0,40.2,26.0,31.0,19.7,10.0,100,47,20,0.00,40.00,0,-999,0,0.00
2014-3-11,30.0,24.4,18.0,28.0,23.5,17.0,100,96,80,0.00,40.00,0,-999,0,0.00
2014-3-12,44.0,22.8,15.0,22.0,16.7,13.0,100,80,36,0.00,40.00,0,-999,0,0.00
2014-3-13,43.0,28.5,22.0,18.0,10.7,5.0,77,48,25,0.00,40.00,0,-999,0,0.00
2014-3-14,49.0,31.4,23.0,31.0,15.8,9.0,100,53,33,0.00,40.00,0,-999,0,0.00
2014-3-15,39.0,30.1,25.0,29.0,21.2,11.0,100,71,45,0.00,40.00,0,-999,0,0.00
2014-3-16,50.0,34.7,26.0,27.0,20.4,11.0,83,57,36,0.00,40.00,0,-999,0,0.00
2014-4-4,44.0,30.6,22.0,27.0,21.6,18.0,92,72,35,0.00,40.00,0,-999,0,0.00
2014-4-5,39.0,30.3,26.0,33.0,26.7,24.0,100,86,67,0.00,40.00,0,-999,0,0.00
2014-4-6,37.0,31.3,25.0,32.0,27.7,25.0,100,87,75,0.00,40.00,0,-999,0,0.00
2014-4-7,49.0,37.3,29.0,31.0,27.6,24.0,84,69,44,0.00,40.00,0,-999,0,0.00
2014-4-8,59.0,39.2,32.0,34.0,28.0,26.0,81,66,32,0.00,40.00,0,-999,0,0.00
2014-4-9,58.0,46.0,41.0,32.0,27.8,25.0,61,49,32,0.00,40.00,0,-999,0,0.00
2014-4-10,53.0,45.6,37.0,34.0,30.2,27.0,74,55,41,0.00,40.00,0,-999,0,0.00
2014-7-26,74.0,63.5,52.0,52.0,46.3,36.0,82,55,35,0.00,40.00,0,0,0,0.00
2014-7-27,78.0,62.8,53.0,46.0,38.8,33.0,63,43,21,0.00,40.00,0,0,0,0.00
2014-7-28,69.0,51.0,31.0,50.0,41.4,31.0,100,74,40,0.00,40.00,0,0,0,0.00
2014-7-29,58.0,46.2,35.0,58.0,46.2,35.0,100,100,100,0.00,40.00,0,0,0,0.00
2014-7-30,59.0,40.6,34.0,59.0,40.6,34.0,100,100,99,0.00,40.00,0,0,0,0.00
2014-7-31,64.0,54.9,46.0,59.0,51.8,46.0,100,90,69,0.00,40.00,0,0,0,0.00
2014-8-1,82.0,56.8,46.0,82.0,55.8,44.0,100,96,91,0.00,40.00,0,0,0,0.00
2014-10-9,58.0,45.7,37.0,33.0,30.3,28.0,70,56,32,0.00,40.00,0,0,0,0.00
2014-10-10,59.0,44.1,37.0,36.0,31.2,28.0,78,61,35,0.00,40.00,0,0,0,0.00
2014-10-11,54.0,43.2,35.0,33.0,27.8,18.0,81,57,26,0.00,40.00,0,0,0,0.00
2014-10-12,47.0,35.1,28.0,32.0,27.1,22.0,100,76,41,0.00,40.00,0,0,0,0.00
2014-10-13,50.0,35.2,25.0,31.0,25.6,22.0,95,71,34,0.00,40.00,0,0,0,0.00
2014-10-14,61.0,43.7,34.0,34.0,28.4,23.0,86,60,23,0.00,40.00,0,0,0,0.00
2014-10-15,52.0,48.5,46.0,26.0,23.6,20.0,43,36,27,0.00,40.00,0,0,0,0.00
2014-11-11,32.0,20.1,15.0,14.0,12.0,10.0,81,71,43,0.00,40.00,0,0,0,0.00
2014-11-12,13.0,6.4,2.0,9.0,0.7,-3.0,85,77,59,0.00,40.00,0,0,0,0.00
2014-11-13,32.0,19.1,3.0,28.0,14.4,-2.0,96,81,62,0.00,40.00,0,0,0,0.00
2014-11-14,36.0,30.4,25.0,27.0,23.0,19.0,95,74,54,0.00,40.00,0,0,0,0.00
2014-11-15,30.0,17.8,1.0,26.0,6.7,-8.0,90,65,26,0.00,40.00,0,0,0,0.00
2014-11-16,18.0,7.8,-3.0,4.0,-1.5,-8.0,85,67,35,0.00,40.00,0,0,0,0.00
2014-11-17,27.0,13.6,5.0,10.0,5.3,1.0,82,70,45,0.00,40.00,0,0,0,0.00
2014-11-18,35.0,20.2,12.0,14.0,8.5,4.0,77,61,41,0.00,40.00,0,0,0,0.00
2014-11-19,42.0,30.3,25.0,16.0,7.0,3.0,47,37,19,0.00,40.00,0,0,0,0.00
2014-11-20,38.0,30.6,26.0,16.0,8.4,3.0,61,40,25,0.00,40.00,0,0,0,0.00
2014-11-21,45.0,31.1,25.0,18.0,16.2,14.0,70,54,32,0.00,40.00,0,0,0,0.00
2014-11-22,38.0,31.3,23.0,32.0,23.0,16.0,100,74,45,0.00,40.00,0,0,0,0.00
2014-11-23,23.0,19.6,18.0,22.0,17.8,16.0,95,92,91,0.00,40.00,0,0,0,0.00
2014-11-24,25.0,18.7,14.0,22.0,16.6,12.0,93,91,87,0.00,40.00,0,0,0,0.00
2014-11-25,36.0,26.9,17.0,31.0,22.9,14.0,93,84,78,0.00,40.00,0,0,0,0.00
2014-11-26,43.0,35.6,30.0,29.0,23.7,18.0,79,62,42,0.00,40.00,0,0,0,0.00
2014-11-27,48.0,40.3,31.0,26.0,20.1,11.0,61,44,25,0.00,40.00,0,0,0,0.00
2014-11-28,53.0,45.9,41.0,13.0,7.4,2.0,31,21,12,0.00,40.00,0,0,0,0.00
2014-11-29,43.0,40.5,39.0,12.0,8.7,7.0,31,26,22,0.00,40.00,0,0,0,0.00
2014-11-30,39.0,33.0,26.0,30.0,22.8,11.0,95,68,31,0.00,40.00,0,0,0,0.00
2014-12-1,41.0,32.0,26.0,24.0,20.1,17.0,87,62,41,0.00,40.00,0,0,0,0.00
2014-12-2,42.0,33.7,29.0,22.0,17.2,11.0,63,50,37,0.00,40.00,0,0,0,0.00
2014-12-3,38.0,32.8,30.0,32.0,25.5,13.0,89,74,43,0.00,40.00,0,0,0,0.00
2014-12-4,41.0,34.1,30.0,32.0,27.6,22.0,88,77,60,0.00,40.00,0,0,0,0.00
2014-12-5,46.0,34.1,29.0,29.0,24.9,22.0,89,69,47,0.00,40.00,0,0,0,0.00
2014-12-6,41.0,34.4,29.0,27.0,24.1,20.0,75,66,45,0.00,40.00,0,0,0,0.00
2014-12-7,43.0,32.1,28.0,26.0,23.3,16.0,87,70,50,0.00,40.00,0,0,0,0.00
2014-12-8,45.0,33.8,29.0,20.0,13.1,5.0,57,42,31,0.00,40.00,0,0,0,0.00
2014-12-9,48.0,35.8,31.0,20.0,14.0,8.0,50,40,27,0.00,40.00,0,0,0,0.00
2014-12-10,46.0,36.9,32.0,19.0,12.7,8.0,44,36,27,0.00,40.00,0,0,0,0.00
2014-12-11,45.0,39.5,31.0,24.0,16.9,8.0,54,40,25,0.00,40.00,0,0,0,0.00
2014-12-12,42.0,38.5,35.0,27.0,23.9,22.0,70,55,50,0.00,40.00,0,0,0,0.00
2014-12-13,34.0,28.7,24.0,30.0,24.8,18.0,98,85,69,0.00,40.00,0,0,0,0.00
2014-12-14,27.0,21.5,14.0,20.0,13.0,7.0,87,70,52,0.00,40.00,0,0,0,0.00
2014-12-15,30.0,19.0,11.0,17.0,8.8,4.0,83,65,37,0.00,40.00,0,0,0,0.00
2014-12-16,33.0,26.4,21.0,20.0,16.1,12.0,88,66,47,0.00,40.00,0,0,0,0.00
2014-12-17,33.0,24.7,21.0,21.0,15.8,13.0,79,69,54,0.00,40.00,0,0,0,0.00
2014-12-18,31.0,23.0,18.0,23.0,17.6,13.0,93,79,63,0.00,40.00,0,0,0,0.00
2014-12-19,35.0,24.5,17.0,22.0,17.4,12.0,82,75,53,0.00,40.00,0,0,0,0.00
2014-12-20,32.0,27.6,24.0,27.0,24.8,22.0,96,89,78,0.00,40.00,0,0,0,0.00
2014-12-21,36.0,31.3,27.0,32.0,28.8,25.0,97,90,79,0.00,40.00,0,0,0,0.00
2014-12-22,30.0,29.1,28.0,28.0,26.4,24.0,96,89,84,0.00,40.00,0,0,0,0.00
2014-12-23,26.0,16.5,12.0,11.0,6.2,3.0,74,63,45,0.00,40.00,0,0,0,0.00
2014-12-24,38.0,24.4,13.0,27.0,16.0,6.0,90,70,47,0.00,40.00,0,0,0,0.00
2014-12-25,30.0,19.3,14.0,24.0,12.4,8.0,95,74,60,0.00,40.00,0,0,0,0.00
2014-12-26,18.0,12.0,8.0,10.0,4.3,0.0,89,72,54,0.00,40.00,0,0,0,0.00
2014-12-27,20.0,9.8,3.0,6.0,0.9,-3.0,79,66,50,0.00,40.00,0,0,0,0.00
2014-12-28,22.0,15.7,11.0,17.0,10.2,2.0,87,78,60,0.00,40.00,0,0,0,0.00
2014-12-29,13.0,9.7,0.0,9.0,5.6,-5.0,86,83,78,0.00,40.00,0,0,0,0.00
2014-12-30,6.0,-5.7,-13.0,-5.0,-12.6,-19.0,81,71,51,0.00,40.00,0,0,0,0.00
2014-12-31,16.0,11.2,6.0,-3.0,-3.6,-6.0,56,50,43,0.00,40.00,0,0,0,0.00
2015-1-1,18.0,11.6,0.0,8.0,2.3,-9.0,82,67,36,0.00,40.00,0,0,0,0.00
2015-1-2,34.0,17.3,12.0,15.0,11.7,8.0,88,79,43,0.00,40.00,0,0,0,0.00